TimeCST,TemperatureF,Dew PointF,Humidity,Sea Level PressureIn,VisibilityMPH,Wind Direction,Wind SpeedMPH,Gust SpeedMPH,PrecipitationIn,Events,Conditions,WindDirDegrees,DateUTC
12:53 AM,43.0,32.0,65,30.12,10.0,West,4.6,-,N/A,,Clear,270,2012-11-07 06:53:00
1:53 AM,44.1,30.0,58,30.12,10.0,NNW,4.6,-,N/A,,Clear,330,2012-11-07 07:53:00
2:53 AM,42.1,32.0,67,30.13,10.0,NNW,3.5,-,N/A,,Clear,330,2012-11-07 08:53:00
3:53 AM,44.1,30.9,60,30.12,10.0,WSW,4.6,-,N/A,,Clear,250,2012-11-07 09:53:00
4:53 AM,41.0,30.0,65,30.14,10.0,North,4.6,-,N/A,,Clear,350,2012-11-07 10:53:00
5:53 AM,42.1,30.0,62,30.15,10.0,Calm,Calm,-,N/A,,Clear,0,2012-11-07 11:53:00
6:53 AM,39.0,30.9,73,30.17,10.0,Calm,Calm,-,N/A,,Clear,0,2012-11-07 12:53:00
7:53 AM,42.1,34.0,73,30.19,10.0,Calm,Calm,-,N/A,,Clear,0,2012-11-07 13:53:00
8:53 AM,50.0,32.0,50,30.19,10.0,West,3.5,-,N/A,,Clear,280,2012-11-07 14:53:00
9:53 AM,55.0,30.0,38,30.19,10.0,North,6.9,-,N/A,,Clear,360,2012-11-07 15:53:00
10:53 AM,59.0,30.0,33,30.19,10.0,NNW,6.9,-,N/A,,Clear,340,2012-11-07 16:53:00
11:53 AM,63.0,28.9,28,30.16,10.0,North,10.4,-,N/A,,Clear,360,2012-11-07 17:53:00
12:53 PM,63.0,28.9,28,30.13,10.0,Variable,4.6,-,N/A,,Clear,0,2012-11-07 18:53:00
1:53 PM,64.0,28.0,26,30.10,10.0,Variable,3.5,-,N/A,,Clear,0,2012-11-07 19:53:00
2:53 PM,64.9,28.0,25,30.09,10.0,North,3.5,-,N/A,,Clear,350,2012-11-07 20:53:00
3:53 PM,64.0,30.0,28,30.09,10.0,East,3.5,-,N/A,,Clear,90,2012-11-07 21:53:00
4:53 PM,63.0,30.0,29,30.08,10.0,ENE,3.5,-,N/A,,Clear,70,2012-11-07 22:53:00
5:53 PM,57.9,30.0,35,30.09,10.0,East,4.6,-,N/A,,Clear,90,2012-11-07 23:53:00
6:53 PM,55.0,28.9,37,30.09,10.0,ESE,3.5,-,N/A,,Clear,110,2012-11-08 00:53:00
7:53 PM,51.1,30.9,46,30.09,10.0,ESE,4.6,-,N/A,,Clear,120,2012-11-08 01:53:00
8:53 PM,50.0,32.0,50,30.09,10.0,SE,5.8,-,N/A,,Clear,130,2012-11-08 02:53:00
9:53 PM,48.9,32.0,52,30.10,10.0,SE,4.6,-,N/A,,Clear,130,2012-11-08 03:53:00
10:53 PM,48.0,32.0,54,30.09,10.0,SE,5.8,-,N/A,,Clear,130,2012-11-08 04:53:00
11:53 PM,46.0,32.0,58,30.09,10.0,SE,4.6,-,N/A,,Clear,130,2012-11-08 05:53:00